sensor_id;sensor_type;location;lat;lon;timestamp;temperature;humidity
36990;DHT22;22898;52.102;5.776;2023-04-12T00:00:00;16.10;93.50
36990;DHT22;22898;52.102;5.776;2023-04-12T00:02:26;16.30;93.20
36990;DHT22;22898;52.102;5.776;2023-04-12T00:04:52;16.40;93.30
36990;DHT22;22898;52.102;5.776;2023-04-12T00:07:25;16.30;93.70
36990;DHT22;22898;52.102;5.776;2023-04-12T00:09:51;16.20;94.20
36990;DHT22;22898;52.102;5.776;2023-04-12T00:12:17;16.20;94.50
36990;DHT22;22898;52.102;5.776;2023-04-12T00:14:44;16.10;94.40
36990;DHT22;22898;52.102;5.776;2023-04-12T00:17:09;15.90;95.30
36990;DHT22;22898;52.102;5.776;2023-04-12T00:19:36;15.90;95.60
36990;DHT22;22898;52.102;5.776;2023-04-12T00:22:09;16.10;95.70
36990;DHT22;22898;52.102;5.776;2023-04-12T00:24:38;16.10;96.10
36990;DHT22;22898;52.102;5.776;2023-04-12T00:27:04;16.30;96.10
36990;DHT22;22898;52.102;5.776;2023-04-12T00:29:30;16.20;96.40
36990;DHT22;22898;52.102;5.776;2023-04-12T00:31:56;16.20;96.60
36990;DHT22;22898;52.102;5.776;2023-04-12T00:34:22;15.90;97.00
36990;DHT22;22898;52.102;5.776;2023-04-12T00:36:48;15.90;97.10
36990;DHT22;22898;52.102;5.776;2023-04-12T00:39:14;15.70;97.40
36990;DHT22;22898;52.102;5.776;2023-04-12T00:41:40;15.50;98.10
36990;DHT22;22898;52.102;5.776;2023-04-12T00:44:05;15.40;98.40
36990;DHT22;22898;52.102;5.776;2023-04-12T00:46:33;15.40;98.80
36990;DHT22;22898;52.102;5.776;2023-04-12T00:48:59;15.20;99.10
36990;DHT22;22898;52.102;5.776;2023-04-12T00:51:25;15.10;99.30
36990;DHT22;22898;52.102;5.776;2023-04-12T00:53:52;15.20;99.40
36990;DHT22;22898;52.102;5.776;2023-04-12T00:56:19;15.10;99.50
36990;DHT22;22898;52.102;5.776;2023-04-12T00:58:48;15.10;99.80
36990;DHT22;22898;52.102;5.776;2023-04-12T01:01:13;15.20;99.90
36990;DHT22;22898;52.102;5.776;2023-04-12T01:03:41;15.10;99.80
36990;DHT22;22898;52.102;5.776;2023-04-12T01:06:46;15.00;99.90
36990;DHT22;22898;52.102;5.776;2023-04-12T01:09:58;14.90;99.90
36990;DHT22;22898;52.102;5.776;2023-04-12T01:15:13;15.30;99.90
36990;DHT22;22898;52.102;5.776;2023-04-12T01:17:48;15.20;99.90
36990;DHT22;22898;52.102;5.776;2023-04-12T01:20:22;15.00;99.90
36990;DHT22;22898;52.102;5.776;2023-04-12T01:25:39;15.10;99.90
36990;DHT22;22898;52.102;5.776;2023-04-12T01:28:10;14.80;99.90
36990;DHT22;22898;52.102;5.776;2023-04-12T01:30:37;14.70;99.90
36990;DHT22;22898;52.102;5.776;2023-04-12T01:33:05;14.60;99.90
36990;DHT22;22898;52.102;5.776;2023-04-12T01:35:33;14.90;99.90
36990;DHT22;22898;52.102;5.776;2023-04-12T01:37:59;14.80;99.90
36990;DHT22;22898;52.102;5.776;2023-04-12T01:40:26;14.90;99.90
36990;DHT22;22898;52.102;5.776;2023-04-12T01:43:11;14.80;99.90
36990;DHT22;22898;52.102;5.776;2023-04-12T01:45:38;14.50;99.90
36990;DHT22;22898;52.102;5.776;2023-04-12T01:48:06;14.30;99.90
36990;DHT22;22898;52.102;5.776;2023-04-12T01:55:31;14.20;99.90
36990;DHT22;22898;52.102;5.776;2023-04-12T01:57:59;14.50;99.90
36990;DHT22;22898;52.102;5.776;2023-04-12T02:00:26;14.50;99.90
36990;DHT22;22898;52.102;5.776;2023-04-12T02:02:52;14.40;99.90
36990;DHT22;22898;52.102;5.776;2023-04-12T02:05:18;14.60;99.90
36990;DHT22;22898;52.102;5.776;2023-04-12T02:07:45;14.60;99.90
36990;DHT22;22898;52.102;5.776;2023-04-12T02:10:14;14.30;99.90
36990;DHT22;22898;52.102;5.776;2023-04-12T02:12:40;14.20;99.90
36990;DHT22;22898;52.102;5.776;2023-04-12T02:15:07;14.30;99.90
36990;DHT22;22898;52.102;5.776;2023-04-12T02:17:33;14.40;99.90
36990;DHT22;22898;52.102;5.776;2023-04-12T02:20:04;14.50;99.90
36990;DHT22;22898;52.102;5.776;2023-04-12T02:22:36;14.20;99.90
36990;DHT22;22898;52.102;5.776;2023-04-12T02:25:03;14.10;99.90
36990;DHT22;22898;52.102;5.776;2023-04-12T02:27:30;14.20;99.90
36990;DHT22;22898;52.102;5.776;2023-04-12T02:29:56;14.40;99.90
36990;DHT22;22898;52.102;5.776;2023-04-12T02:32:23;14.50;99.90
36990;DHT22;22898;52.102;5.776;2023-04-12T02:34:48;14.40;99.90
36990;DHT22;22898;52.102;5.776;2023-04-12T02:37:16;14.10;99.90
36990;DHT22;22898;52.102;5.776;2023-04-12T02:39:42;13.90;99.90
36990;DHT22;22898;52.102;5.776;2023-04-12T02:42:09;14.10;99.90
36990;DHT22;22898;52.102;5.776;2023-04-12T02:44:34;14.40;99.90
36990;DHT22;22898;52.102;5.776;2023-04-12T02:47:00;14.80;99.90
36990;DHT22;22898;52.102;5.776;2023-04-12T02:49:26;14.50;99.90
36990;DHT22;22898;52.102;5.776;2023-04-12T02:51:51;14.40;99.90
36990;DHT22;22898;52.102;5.776;2023-04-12T02:54:17;14.00;99.90
36990;DHT22;22898;52.102;5.776;2023-04-12T02:56:42;13.80;99.90
36990;DHT22;22898;52.102;5.776;2023-04-12T02:59:08;13.50;99.90
36990;DHT22;22898;52.102;5.776;2023-04-12T03:01:33;13.50;99.90
36990;DHT22;22898;52.102;5.776;2023-04-12T03:03:59;13.80;99.90
36990;DHT22;22898;52.102;5.776;2023-04-12T03:06:26;13.90;99.90
36990;DHT22;22898;52.102;5.776;2023-04-12T03:08:52;13.90;99.90
36990;DHT22;22898;52.102;5.776;2023-04-12T03:11:17;14.00;99.90
36990;DHT22;22898;52.102;5.776;2023-04-12T03:13:43;13.80;99.90
36990;DHT22;22898;52.102;5.776;2023-04-12T03:16:23;13.20;99.90
36990;DHT22;22898;52.102;5.776;2023-04-12T03:18:49;13.60;99.90
36990;DHT22;22898;52.102;5.776;2023-04-12T03:21:16;13.70;99.90
36990;DHT22;22898;52.102;5.776;2023-04-12T03:23:42;13.80;99.90
36990;DHT22;22898;52.102;5.776;2023-04-12T03:26:07;13.90;99.90
36990;DHT22;22898;52.102;5.776;2023-04-12T03:28:34;13.70;99.90
36990;DHT22;22898;52.102;5.776;2023-04-12T03:31:00;13.50;99.90
36990;DHT22;22898;52.102;5.776;2023-04-12T03:33:26;13.40;99.90
36990;DHT22;22898;52.102;5.776;2023-04-12T03:35:52;13.20;99.90
36990;DHT22;22898;52.102;5.776;2023-04-12T03:38:17;13.20;99.90
36990;DHT22;22898;52.102;5.776;2023-04-12T03:40:43;13.30;99.90
36990;DHT22;22898;52.102;5.776;2023-04-12T03:43:08;13.50;99.90
36990;DHT22;22898;52.102;5.776;2023-04-12T03:45:34;13.60;99.90
36990;DHT22;22898;52.102;5.776;2023-04-12T03:48:00;13.80;99.90
36990;DHT22;22898;52.102;5.776;2023-04-12T03:50:26;13.80;99.90
36990;DHT22;22898;52.102;5.776;2023-04-12T03:52:54;13.80;99.90
36990;DHT22;22898;52.102;5.776;2023-04-12T03:55:19;13.70;99.90
36990;DHT22;22898;52.102;5.776;2023-04-12T03:57:45;13.80;99.90
36990;DHT22;22898;52.102;5.776;2023-04-12T04:00:11;14.10;99.90
36990;DHT22;22898;52.102;5.776;2023-04-12T04:02:37;13.90;99.90
36990;DHT22;22898;52.102;5.776;2023-04-12T04:05:03;13.80;99.90
36990;DHT22;22898;52.102;5.776;2023-04-12T04:07:29;13.90;99.90
36990;DHT22;22898;52.102;5.776;2023-04-12T04:09:56;13.70;99.90
36990;DHT22;22898;52.102;5.776;2023-04-12T04:12:22;13.70;99.90
36990;DHT22;22898;52.102;5.776;2023-04-12T04:14:47;13.80;99.90
36990;DHT22;22898;52.102;5.776;2023-04-12T04:17:13;13.80;99.90
36990;DHT22;22898;52.102;5.776;2023-04-12T04:19:38;13.90;99.90
36990;DHT22;22898;52.102;5.776;2023-04-12T04:22:04;13.90;99.90
36990;DHT22;22898;52.102;5.776;2023-04-12T04:24:30;13.70;99.90
36990;DHT22;22898;52.102;5.776;2023-04-12T04:26:55;13.50;99.90
36990;DHT22;22898;52.102;5.776;2023-04-12T04:29:21;13.50;99.90
36990;DHT22;22898;52.102;5.776;2023-04-12T04:31:46;13.40;99.90
36990;DHT22;22898;52.102;5.776;2023-04-12T04:34:12;13.30;99.90
36990;DHT22;22898;52.102;5.776;2023-04-12T04:36:40;13.40;99.90
36990;DHT22;22898;52.102;5.776;2023-04-12T04:39:06;13.70;99.90
36990;DHT22;22898;52.102;5.776;2023-04-12T04:41:32;13.90;99.90
36990;DHT22;22898;52.102;5.776;2023-04-12T04:44:04;13.70;99.90
36990;DHT22;22898;52.102;5.776;2023-04-12T04:46:34;13.80;99.90
36990;DHT22;22898;52.102;5.776;2023-04-12T04:49:05;14.00;99.90
36990;DHT22;22898;52.102;5.776;2023-04-12T04:51:30;14.20;99.90
36990;DHT22;22898;52.102;5.776;2023-04-12T04:53:57;14.30;99.90
36990;DHT22;22898;52.102;5.776;2023-04-12T04:56:23;14.20;99.90
36990;DHT22;22898;52.102;5.776;2023-04-12T04:58:49;14.10;99.90
36990;DHT22;22898;52.102;5.776;2023-04-12T05:01:15;13.80;99.90
36990;DHT22;22898;52.102;5.776;2023-04-12T05:03:41;13.80;99.90
36990;DHT22;22898;52.102;5.776;2023-04-12T05:06:11;13.90;99.90
36990;DHT22;22898;52.102;5.776;2023-04-12T05:08:37;13.60;99.90
36990;DHT22;22898;52.102;5.776;2023-04-12T05:11:03;13.40;99.90
36990;DHT22;22898;52.102;5.776;2023-04-12T05:13:29;13.30;99.90
36990;DHT22;22898;52.102;5.776;2023-04-12T05:15:54;13.30;99.90
36990;DHT22;22898;52.102;5.776;2023-04-12T05:18:20;13.10;99.90
36990;DHT22;22898;52.102;5.776;2023-04-12T05:20:45;13.40;99.90
36990;DHT22;22898;52.102;5.776;2023-04-12T05:23:13;13.90;99.90
36990;DHT22;22898;52.102;5.776;2023-04-12T05:25:46;14.00;99.90
36990;DHT22;22898;52.102;5.776;2023-04-12T05:28:15;14.20;99.90
36990;DHT22;22898;52.102;5.776;2023-04-12T05:30:42;14.00;99.90
36990;DHT22;22898;52.102;5.776;2023-04-12T05:33:08;14.00;99.90
36990;DHT22;22898;52.102;5.776;2023-04-12T05:35:33;13.90;99.90
36990;DHT22;22898;52.102;5.776;2023-04-12T05:37:59;14.20;99.90
36990;DHT22;22898;52.102;5.776;2023-04-12T05:40:25;14.20;99.90
36990;DHT22;22898;52.102;5.776;2023-04-12T05:42:51;14.20;99.90
36990;DHT22;22898;52.102;5.776;2023-04-12T05:45:16;14.20;99.90
36990;DHT22;22898;52.102;5.776;2023-04-12T05:47:42;14.20;99.90
36990;DHT22;22898;52.102;5.776;2023-04-12T05:50:08;14.40;99.90
36990;DHT22;22898;52.102;5.776;2023-04-12T05:52:36;14.80;99.90
36990;DHT22;22898;52.102;5.776;2023-04-12T05:55:01;14.90;99.90
36990;DHT22;22898;52.102;5.776;2023-04-12T05:57:27;14.60;99.90
36990;DHT22;22898;52.102;5.776;2023-04-12T05:59:52;14.10;99.90
36990;DHT22;22898;52.102;5.776;2023-04-12T06:02:19;14.20;99.90
36990;DHT22;22898;52.102;5.776;2023-04-12T06:04:44;14.40;99.90
36990;DHT22;22898;52.102;5.776;2023-04-12T06:07:10;14.50;99.90
36990;DHT22;22898;52.102;5.776;2023-04-12T06:09:36;14.60;99.90
36990;DHT22;22898;52.102;5.776;2023-04-12T06:12:01;14.90;99.90
36990;DHT22;22898;52.102;5.776;2023-04-12T06:14:27;15.00;99.90
36990;DHT22;22898;52.102;5.776;2023-04-12T06:16:53;15.20;99.90
36990;DHT22;22898;52.102;5.776;2023-04-12T06:19:18;15.20;99.90
36990;DHT22;22898;52.102;5.776;2023-04-12T06:21:44;15.20;99.90
36990;DHT22;22898;52.102;5.776;2023-04-12T06:24:09;15.30;99.90
36990;DHT22;22898;52.102;5.776;2023-04-12T06:26:36;15.20;99.90
36990;DHT22;22898;52.102;5.776;2023-04-12T06:29:01;15.60;99.90
36990;DHT22;22898;52.102;5.776;2023-04-12T06:31:27;15.80;99.90
36990;DHT22;22898;52.102;5.776;2023-04-12T06:33:52;15.80;99.90
36990;DHT22;22898;52.102;5.776;2023-04-12T06:36:18;15.70;99.90
36990;DHT22;22898;52.102;5.776;2023-04-12T06:38:43;15.50;99.90
36990;DHT22;22898;52.102;5.776;2023-04-12T06:41:09;15.10;99.90
36990;DHT22;22898;52.102;5.776;2023-04-12T06:43:35;15.20;99.90
36990;DHT22;22898;52.102;5.776;2023-04-12T06:46:01;15.30;99.90
36990;DHT22;22898;52.102;5.776;2023-04-12T06:48:28;15.60;99.90
36990;DHT22;22898;52.102;5.776;2023-04-12T06:50:54;15.30;99.90
36990;DHT22;22898;52.102;5.776;2023-04-12T06:53:19;14.40;99.90
36990;DHT22;22898;52.102;5.776;2023-04-12T06:55:45;13.70;99.90
36990;DHT22;22898;52.102;5.776;2023-04-12T06:58:11;13.10;99.90
36990;DHT22;22898;52.102;5.776;2023-04-12T07:00:36;13.00;99.90
36990;DHT22;22898;52.102;5.776;2023-04-12T07:03:02;12.80;99.90
36990;DHT22;22898;52.102;5.776;2023-04-12T07:05:27;13.60;99.90
36990;DHT22;22898;52.102;5.776;2023-04-12T07:07:53;14.30;99.90
36990;DHT22;22898;52.102;5.776;2023-04-12T07:10:18;15.00;99.90
36990;DHT22;22898;52.102;5.776;2023-04-12T07:12:44;15.30;99.90
36990;DHT22;22898;52.102;5.776;2023-04-12T07:15:10;15.60;99.90
36990;DHT22;22898;52.102;5.776;2023-04-12T07:17:36;15.80;99.90
36990;DHT22;22898;52.102;5.776;2023-04-12T07:20:01;16.10;99.90
36990;DHT22;22898;52.102;5.776;2023-04-12T07:22:27;16.20;99.90
36990;DHT22;22898;52.102;5.776;2023-04-12T07:24:52;16.40;99.90
36990;DHT22;22898;52.102;5.776;2023-04-12T07:27:18;16.60;99.90
36990;DHT22;22898;52.102;5.776;2023-04-12T07:29:43;16.80;99.90
36990;DHT22;22898;52.102;5.776;2023-04-12T07:32:09;17.00;99.90
36990;DHT22;22898;52.102;5.776;2023-04-12T07:34:35;17.20;99.90
36990;DHT22;22898;52.102;5.776;2023-04-12T07:37:01;17.30;99.90
36990;DHT22;22898;52.102;5.776;2023-04-12T07:39:27;17.00;99.90
36990;DHT22;22898;52.102;5.776;2023-04-12T07:41:54;16.90;99.90
36990;DHT22;22898;52.102;5.776;2023-04-12T07:44:20;17.10;99.90
36990;DHT22;22898;52.102;5.776;2023-04-12T07:46:45;17.40;99.90
36990;DHT22;22898;52.102;5.776;2023-04-12T07:49:11;17.60;99.90
36990;DHT22;22898;52.102;5.776;2023-04-12T07:51:37;17.80;99.90
36990;DHT22;22898;52.102;5.776;2023-04-12T07:54:03;18.10;99.70
36990;DHT22;22898;52.102;5.776;2023-04-12T07:56:29;18.10;99.20
36990;DHT22;22898;52.102;5.776;2023-04-12T07:58:54;18.10;99.30
36990;DHT22;22898;52.102;5.776;2023-04-12T08:01:20;18.30;99.40
36990;DHT22;22898;52.102;5.776;2023-04-12T08:03:46;18.50;99.10
36990;DHT22;22898;52.102;5.776;2023-04-12T08:06:11;18.70;98.60
36990;DHT22;22898;52.102;5.776;2023-04-12T08:08:37;18.70;98.30
36990;DHT22;22898;52.102;5.776;2023-04-12T08:11:03;18.60;98.50
36990;DHT22;22898;52.102;5.776;2023-04-12T08:13:31;18.80;98.50
36990;DHT22;22898;52.102;5.776;2023-04-12T08:15:56;18.90;98.10
36990;DHT22;22898;52.102;5.776;2023-04-12T08:18:22;19.00;98.10
36990;DHT22;22898;52.102;5.776;2023-04-12T08:20:47;19.00;98.00
36990;DHT22;22898;52.102;5.776;2023-04-12T08:23:13;19.20;98.00
36990;DHT22;22898;52.102;5.776;2023-04-12T08:25:40;19.40;97.50
36990;DHT22;22898;52.102;5.776;2023-04-12T08:28:06;19.70;97.30
36990;DHT22;22898;52.102;5.776;2023-04-12T08:30:32;19.70;96.90
36990;DHT22;22898;52.102;5.776;2023-04-12T08:32:58;19.60;97.20
36990;DHT22;22898;52.102;5.776;2023-04-12T08:35:24;19.70;97.10
36990;DHT22;22898;52.102;5.776;2023-04-12T08:37:49;19.50;96.70
36990;DHT22;22898;52.102;5.776;2023-04-12T08:40:15;19.10;96.70
36990;DHT22;22898;52.102;5.776;2023-04-12T08:42:42;19.20;96.80
36990;DHT22;22898;52.102;5.776;2023-04-12T08:45:08;19.30;96.60
36990;DHT22;22898;52.102;5.776;2023-04-12T08:47:37;19.50;96.70
36990;DHT22;22898;52.102;5.776;2023-04-12T08:50:04;19.50;96.70
36990;DHT22;22898;52.102;5.776;2023-04-12T08:52:34;19.50;96.20
36990;DHT22;22898;52.102;5.776;2023-04-12T08:55:07;19.30;96.40
36990;DHT22;22898;52.102;5.776;2023-04-12T08:57:34;19.40;96.70
36990;DHT22;22898;52.102;5.776;2023-04-12T09:00:01;19.60;97.00
36990;DHT22;22898;52.102;5.776;2023-04-12T09:02:28;19.90;96.80
36990;DHT22;22898;52.102;5.776;2023-04-12T09:04:53;20.10;96.60
36990;DHT22;22898;52.102;5.776;2023-04-12T09:07:20;20.30;96.10
36990;DHT22;22898;52.102;5.776;2023-04-12T09:09:52;20.50;95.00
36990;DHT22;22898;52.102;5.776;2023-04-12T09:12:18;20.00;95.70
36990;DHT22;22898;52.102;5.776;2023-04-12T09:14:46;20.10;96.10
36990;DHT22;22898;52.102;5.776;2023-04-12T09:17:26;20.50;96.20
36990;DHT22;22898;52.102;5.776;2023-04-12T09:19:53;21.00;95.60
36990;DHT22;22898;52.102;5.776;2023-04-12T09:22:35;21.30;93.70
36990;DHT22;22898;52.102;5.776;2023-04-12T09:25:02;21.50;94.30
36990;DHT22;22898;52.102;5.776;2023-04-12T09:27:27;22.00;93.60
36990;DHT22;22898;52.102;5.776;2023-04-12T09:30:08;20.80;93.00
36990;DHT22;22898;52.102;5.776;2023-04-12T09:32:34;19.40;96.00
36990;DHT22;22898;52.102;5.776;2023-04-12T09:35:00;19.80;95.60
36990;DHT22;22898;52.102;5.776;2023-04-12T09:37:27;19.70;95.50
36990;DHT22;22898;52.102;5.776;2023-04-12T09:40:06;18.80;95.50
36990;DHT22;22898;52.102;5.776;2023-04-12T09:42:33;19.00;96.50
36990;DHT22;22898;52.102;5.776;2023-04-12T09:45:00;19.60;95.80
36990;DHT22;22898;52.102;5.776;2023-04-12T09:47:40;19.10;95.30
36990;DHT22;22898;52.102;5.776;2023-04-12T09:50:06;18.40;96.80
36990;DHT22;22898;52.102;5.776;2023-04-12T09:52:36;18.90;96.70
36990;DHT22;22898;52.102;5.776;2023-04-12T09:55:07;19.40;96.00
36990;DHT22;22898;52.102;5.776;2023-04-12T09:57:41;20.30;95.00
36990;DHT22;22898;52.102;5.776;2023-04-12T10:00:09;20.90;92.80
36990;DHT22;22898;52.102;5.776;2023-04-12T10:02:43;20.40;92.90
36990;DHT22;22898;52.102;5.776;2023-04-12T10:05:13;19.80;94.40
36990;DHT22;22898;52.102;5.776;2023-04-12T10:07:40;20.00;94.30
36990;DHT22;22898;52.102;5.776;2023-04-12T10:10:10;20.30;93.70
36990;DHT22;22898;52.102;5.776;2023-04-12T10:12:37;20.60;93.70
36990;DHT22;22898;52.102;5.776;2023-04-12T10:15:05;20.50;92.30
36990;DHT22;22898;52.102;5.776;2023-04-12T10:17:53;19.50;94.80
36990;DHT22;22898;52.102;5.776;2023-04-12T10:20:21;19.90;92.40
36990;DHT22;22898;52.102;5.776;2023-04-12T10:22:48;19.20;94.10
36990;DHT22;22898;52.102;5.776;2023-04-12T10:25:17;18.90;95.10
36990;DHT22;22898;52.102;5.776;2023-04-12T10:27:44;19.50;93.80
36990;DHT22;22898;52.102;5.776;2023-04-12T10:30:28;20.00;92.30
36990;DHT22;22898;52.102;5.776;2023-04-12T10:35:47;18.70;92.80
36990;DHT22;22898;52.102;5.776;2023-04-12T10:38:14;18.40;92.30
36990;DHT22;22898;52.102;5.776;2023-04-12T10:41:21;18.00;92.90
36990;DHT22;22898;52.102;5.776;2023-04-12T10:43:51;18.00;93.70
36990;DHT22;22898;52.102;5.776;2023-04-12T10:49:11;17.90;95.00
36990;DHT22;22898;52.102;5.776;2023-04-12T10:51:38;18.40;94.20
36990;DHT22;22898;52.102;5.776;2023-04-12T10:59:13;20.50;92.50
36990;DHT22;22898;52.102;5.776;2023-04-12T11:01:40;20.80;92.10
36990;DHT22;22898;52.102;5.776;2023-04-12T11:09:19;20.60;90.60
36990;DHT22;22898;52.102;5.776;2023-04-12T11:11:46;20.60;90.50
36990;DHT22;22898;52.102;5.776;2023-04-12T11:14:14;20.90;90.30
36990;DHT22;22898;52.102;5.776;2023-04-12T11:19:32;21.40;87.30
36990;DHT22;22898;52.102;5.776;2023-04-12T11:22:03;20.80;89.10
36990;DHT22;22898;52.102;5.776;2023-04-12T11:24:29;20.30;90.30
36990;DHT22;22898;52.102;5.776;2023-04-12T11:26:56;20.20;90.20
36990;DHT22;22898;52.102;5.776;2023-04-12T11:29:22;20.70;89.20
36990;DHT22;22898;52.102;5.776;2023-04-12T11:31:48;20.50;89.20
36990;DHT22;22898;52.102;5.776;2023-04-12T11:34:16;20.70;86.10
36990;DHT22;22898;52.102;5.776;2023-04-12T11:36:42;19.90;87.20
36990;DHT22;22898;52.102;5.776;2023-04-12T11:39:09;19.70;87.80
36990;DHT22;22898;52.102;5.776;2023-04-12T11:41:35;19.60;88.20
36990;DHT22;22898;52.102;5.776;2023-04-12T11:44:00;19.30;89.20
36990;DHT22;22898;52.102;5.776;2023-04-12T11:46:32;18.70;90.80
36990;DHT22;22898;52.102;5.776;2023-04-12T11:48:58;18.70;91.10
36990;DHT22;22898;52.102;5.776;2023-04-12T11:51:24;18.50;90.70
36990;DHT22;22898;52.102;5.776;2023-04-12T11:53:56;17.90;91.20
36990;DHT22;22898;52.102;5.776;2023-04-12T11:56:23;18.00;91.10
36990;DHT22;22898;52.102;5.776;2023-04-12T11:58:48;17.80;92.30
36990;DHT22;22898;52.102;5.776;2023-04-12T12:01:22;17.40;92.50
36990;DHT22;22898;52.102;5.776;2023-04-12T12:03:48;17.50;92.90
36990;DHT22;22898;52.102;5.776;2023-04-12T12:06:14;16.80;94.50
36990;DHT22;22898;52.102;5.776;2023-04-12T12:08:40;16.30;96.80
36990;DHT22;22898;52.102;5.776;2023-04-12T12:11:06;15.90;95.90
36990;DHT22;22898;52.102;5.776;2023-04-12T12:13:52;15.20;97.00
36990;DHT22;22898;52.102;5.776;2023-04-12T12:16:23;15.40;97.60
36990;DHT22;22898;52.102;5.776;2023-04-12T12:18:49;15.90;97.90
36990;DHT22;22898;52.102;5.776;2023-04-12T12:21:15;16.60;97.00
36990;DHT22;22898;52.102;5.776;2023-04-12T12:23:42;16.90;94.00
36990;DHT22;22898;52.102;5.776;2023-04-12T12:26:08;17.00;92.80
36990;DHT22;22898;52.102;5.776;2023-04-12T12:28:39;17.50;92.40
36990;DHT22;22898;52.102;5.776;2023-04-12T12:31:06;18.00;92.10
36990;DHT22;22898;52.102;5.776;2023-04-12T12:33:36;18.60;90.20
36990;DHT22;22898;52.102;5.776;2023-04-12T12:36:08;18.00;86.20
36990;DHT22;22898;52.102;5.776;2023-04-12T12:38:38;17.00;90.00
36990;DHT22;22898;52.102;5.776;2023-04-12T12:41:21;17.00;90.40
36990;DHT22;22898;52.102;5.776;2023-04-12T12:43:48;16.10;91.60
36990;DHT22;22898;52.102;5.776;2023-04-12T12:46:14;15.60;91.10
36990;DHT22;22898;52.102;5.776;2023-04-12T12:48:42;15.60;91.70
36990;DHT22;22898;52.102;5.776;2023-04-12T12:51:08;15.90;91.00
36990;DHT22;22898;52.102;5.776;2023-04-12T12:53:40;16.20;90.30
36990;DHT22;22898;52.102;5.776;2023-04-12T12:56:10;16.00;89.10
36990;DHT22;22898;52.102;5.776;2023-04-12T12:58:36;16.00;90.40
36990;DHT22;22898;52.102;5.776;2023-04-12T13:01:02;16.30;87.90
36990;DHT22;22898;52.102;5.776;2023-04-12T13:03:31;16.20;83.90
36990;DHT22;22898;52.102;5.776;2023-04-12T13:05:57;15.60;83.80
36990;DHT22;22898;52.102;5.776;2023-04-12T13:08:23;15.50;84.80
36990;DHT22;22898;52.102;5.776;2023-04-12T13:10:49;15.60;86.10
36990;DHT22;22898;52.102;5.776;2023-04-12T13:13:15;15.60;86.60
36990;DHT22;22898;52.102;5.776;2023-04-12T13:15:41;15.60;86.60
36990;DHT22;22898;52.102;5.776;2023-04-12T13:18:06;15.40;88.60
36990;DHT22;22898;52.102;5.776;2023-04-12T13:20:32;15.40;90.20
36990;DHT22;22898;52.102;5.776;2023-04-12T13:22:58;14.60;78.80
36990;DHT22;22898;52.102;5.776;2023-04-12T13:25:25;14.80;76.60
36990;DHT22;22898;52.102;5.776;2023-04-12T13:27:51;15.70;83.10
36990;DHT22;22898;52.102;5.776;2023-04-12T13:30:18;15.70;85.10
36990;DHT22;22898;52.102;5.776;2023-04-12T13:32:44;15.80;84.20
36990;DHT22;22898;52.102;5.776;2023-04-12T13:35:10;16.00;81.50
36990;DHT22;22898;52.102;5.776;2023-04-12T13:37:36;15.30;82.80
36990;DHT22;22898;52.102;5.776;2023-04-12T13:40:02;15.60;82.90
36990;DHT22;22898;52.102;5.776;2023-04-12T13:42:28;15.80;82.20
36990;DHT22;22898;52.102;5.776;2023-04-12T13:44:53;15.90;82.10
36990;DHT22;22898;52.102;5.776;2023-04-12T13:47:19;15.70;83.70
36990;DHT22;22898;52.102;5.776;2023-04-12T13:49:44;15.40;82.70
36990;DHT22;22898;52.102;5.776;2023-04-12T13:52:10;15.40;84.90
36990;DHT22;22898;52.102;5.776;2023-04-12T13:54:36;15.80;81.90
36990;DHT22;22898;52.102;5.776;2023-04-12T13:57:01;15.30;83.20
36990;DHT22;22898;52.102;5.776;2023-04-12T13:59:28;14.70;85.90
36990;DHT22;22898;52.102;5.776;2023-04-12T14:01:54;14.60;87.30
36990;DHT22;22898;52.102;5.776;2023-04-12T14:04:19;14.60;88.50
36990;DHT22;22898;52.102;5.776;2023-04-12T14:06:45;14.80;87.30
36990;DHT22;22898;52.102;5.776;2023-04-12T14:09:28;15.00;87.90
36990;DHT22;22898;52.102;5.776;2023-04-12T14:11:55;15.50;87.50
36990;DHT22;22898;52.102;5.776;2023-04-12T14:14:22;15.50;86.40
36990;DHT22;22898;52.102;5.776;2023-04-12T14:16:49;15.20;86.20
36990;DHT22;22898;52.102;5.776;2023-04-12T14:19:16;14.50;89.40
36990;DHT22;22898;52.102;5.776;2023-04-12T14:21:41;14.50;87.30
36990;DHT22;22898;52.102;5.776;2023-04-12T14:24:07;14.10;89.80
36990;DHT22;22898;52.102;5.776;2023-04-12T14:26:33;14.40;89.10
36990;DHT22;22898;52.102;5.776;2023-04-12T14:28:58;14.90;87.40
36990;DHT22;22898;52.102;5.776;2023-04-12T14:31:24;15.00;87.80
36990;DHT22;22898;52.102;5.776;2023-04-12T14:33:50;16.00;85.30
36990;DHT22;22898;52.102;5.776;2023-04-12T14:36:16;16.20;84.50
36990;DHT22;22898;52.102;5.776;2023-04-12T14:38:41;15.80;85.20
36990;DHT22;22898;52.102;5.776;2023-04-12T14:41:08;16.00;85.40
36990;DHT22;22898;52.102;5.776;2023-04-12T14:43:34;16.30;83.80
36990;DHT22;22898;52.102;5.776;2023-04-12T14:46:00;16.40;84.10
36990;DHT22;22898;52.102;5.776;2023-04-12T14:48:26;15.60;86.20
36990;DHT22;22898;52.102;5.776;2023-04-12T14:50:51;15.30;87.90
36990;DHT22;22898;52.102;5.776;2023-04-12T14:53:19;15.10;89.20
36990;DHT22;22898;52.102;5.776;2023-04-12T14:55:45;15.30;88.60
36990;DHT22;22898;52.102;5.776;2023-04-12T14:58:11;15.00;90.20
36990;DHT22;22898;52.102;5.776;2023-04-12T15:00:37;15.40;90.10
36990;DHT22;22898;52.102;5.776;2023-04-12T15:03:02;15.60;89.60
36990;DHT22;22898;52.102;5.776;2023-04-12T15:05:29;15.70;89.40
36990;DHT22;22898;52.102;5.776;2023-04-12T15:07:55;15.80;89.80
36990;DHT22;22898;52.102;5.776;2023-04-12T15:10:21;15.80;89.40
36990;DHT22;22898;52.102;5.776;2023-04-12T15:12:47;15.60;90.10
36990;DHT22;22898;52.102;5.776;2023-04-12T15:15:13;15.70;89.50
36990;DHT22;22898;52.102;5.776;2023-04-12T15:17:40;15.70;90.10
36990;DHT22;22898;52.102;5.776;2023-04-12T15:20:06;16.30;89.70
36990;DHT22;22898;52.102;5.776;2023-04-12T15:22:38;17.10;87.20
36990;DHT22;22898;52.102;5.776;2023-04-12T15:25:04;17.50;87.30
36990;DHT22;22898;52.102;5.776;2023-04-12T15:27:31;18.10;85.40
36990;DHT22;22898;52.102;5.776;2023-04-12T15:29:57;18.50;84.30
36990;DHT22;22898;52.102;5.776;2023-04-12T15:32:23;18.80;82.50
36990;DHT22;22898;52.102;5.776;2023-04-12T15:34:53;18.80;81.70
36990;DHT22;22898;52.102;5.776;2023-04-12T15:37:22;18.60;82.10
36990;DHT22;22898;52.102;5.776;2023-04-12T15:39:48;18.20;83.40
36990;DHT22;22898;52.102;5.776;2023-04-12T15:42:14;18.40;84.10
36990;DHT22;22898;52.102;5.776;2023-04-12T15:44:41;18.60;83.40
36990;DHT22;22898;52.102;5.776;2023-04-12T15:47:07;18.80;82.80
36990;DHT22;22898;52.102;5.776;2023-04-12T15:49:33;19.20;81.60
36990;DHT22;22898;52.102;5.776;2023-04-12T15:51:58;19.30;81.20
36990;DHT22;22898;52.102;5.776;2023-04-12T15:54:24;19.20;80.80
36990;DHT22;22898;52.102;5.776;2023-04-12T15:56:50;19.20;81.30
36990;DHT22;22898;52.102;5.776;2023-04-12T15:59:16;19.00;81.60